createdAt,value
2019-04-06T00:02:28.910Z,20.77
2019-04-06T00:04:57.471Z,20.20
2019-04-06T00:07:25.931Z,18.75
2019-04-06T00:09:54.356Z,19.40
2019-04-06T00:12:22.799Z,19.37
2019-04-06T00:14:51.273Z,19.20
2019-04-06T00:17:19.786Z,18.42
2019-04-06T00:19:48.212Z,17.35
2019-04-06T00:22:16.657Z,18.92
2019-04-06T00:24:45.092Z,18.67
2019-04-06T00:27:13.561Z,18.45
2019-04-06T00:29:42.263Z,16.80
2019-04-06T00:32:12.394Z,17.40
2019-04-06T00:34:40.846Z,16.42
2019-04-06T00:37:09.289Z,16.15
2019-04-06T00:39:37.716Z,15.45
2019-04-06T00:42:06.163Z,15.18
2019-04-06T00:44:34.617Z,15.70
2019-04-06T00:47:03.128Z,15.15
2019-04-06T00:49:31.569Z,15.35
2019-04-06T00:52:00.011Z,15.13
2019-04-06T00:54:28.479Z,15.05
2019-04-06T00:56:56.979Z,15.25
2019-04-06T00:59:25.412Z,15.93
2019-04-06T01:01:54.763Z,17.12
2019-04-06T01:04:23.216Z,17.05
2019-04-06T01:06:51.680Z,15.03
2019-04-06T01:09:20.112Z,16.02
2019-04-06T01:11:48.545Z,15.25
2019-04-06T01:14:17.049Z,15.10
2019-04-06T01:16:45.601Z,16.15
2019-04-06T01:19:14.050Z,16.70
2019-04-06T01:21:42.487Z,16.05
2019-04-06T01:24:10.925Z,15.72
2019-04-06T01:26:39.374Z,15.50
2019-04-06T01:29:07.825Z,14.90
2019-04-06T01:31:36.278Z,16.37
2019-04-06T01:34:04.782Z,16.60
2019-04-06T01:36:33.246Z,15.75
2019-04-06T01:39:01.667Z,15.35
2019-04-06T01:41:30.114Z,15.48
2019-04-06T01:43:58.557Z,15.23
2019-04-06T01:46:27.030Z,16.77
2019-04-06T01:48:55.507Z,16.07
2019-04-06T01:51:23.947Z,15.68
2019-04-06T01:53:52.387Z,14.87
2019-04-06T01:56:20.846Z,15.50
2019-04-06T01:58:49.309Z,15.35
2019-04-06T02:01:28.464Z,13.88
2019-04-06T02:03:57.009Z,14.15
2019-04-06T02:06:25.509Z,14.75
2019-04-06T02:08:53.949Z,16.20
2019-04-06T02:11:22.377Z,31.60
2019-04-06T02:13:50.814Z,21.05
2019-04-06T02:16:19.272Z,15.83
2019-04-06T02:18:47.698Z,15.08
2019-04-06T02:21:16.137Z,15.75
2019-04-06T02:23:44.585Z,14.68
2019-04-06T02:26:13.018Z,17.27
2019-04-06T02:28:41.458Z,32.88
2019-04-06T02:31:14.193Z,28.02
2019-04-06T02:33:47.274Z,17.75
2019-04-06T02:36:20.167Z,15.93
2019-04-06T02:38:53.209Z,15.13
2019-04-06T02:41:23.355Z,15.68
2019-04-06T02:43:51.794Z,15.65
2019-04-06T02:46:20.266Z,16.05
2019-04-06T02:48:48.728Z,15.40
2019-04-06T02:51:17.345Z,14.15
2019-04-06T02:53:45.880Z,14.65
2019-04-06T02:56:14.323Z,15.53
2019-04-06T02:58:42.768Z,15.55
2019-04-06T03:01:11.206Z,15.13
2019-04-06T03:03:39.672Z,14.53
2019-04-06T03:06:08.247Z,15.55
2019-04-06T03:08:36.718Z,15.50
2019-04-06T03:11:05.676Z,15.43
2019-04-06T03:13:34.514Z,15.70
2019-04-06T03:16:03.155Z,15.98
2019-04-06T03:18:31.613Z,16.05
2019-04-06T03:21:00.074Z,15.63
2019-04-06T03:23:28.575Z,15.75
2019-04-06T03:25:57.014Z,16.65
2019-04-06T03:28:25.456Z,15.98
2019-04-06T03:30:53.901Z,15.75
2019-04-06T03:33:22.346Z,17.17
2019-04-06T03:35:51.822Z,16.55
2019-04-06T03:38:20.604Z,17.98
2019-04-06T03:40:49.086Z,15.72
2019-04-06T03:43:17.716Z,15.75
2019-04-06T03:45:46.147Z,15.75
2019-04-06T03:48:14.595Z,15.38
2019-04-06T03:50:43.245Z,15.35
2019-04-06T03:53:11.851Z,15.80
2019-04-06T03:55:40.297Z,15.10
2019-04-06T03:58:08.764Z,15.55
2019-04-06T04:00:37.217Z,15.48
2019-04-06T04:03:05.651Z,15.15
2019-04-06T04:05:34.085Z,16.05
2019-04-06T04:08:02.538Z,15.10
2019-04-06T04:10:36.108Z,16.97
2019-04-06T04:13:05.189Z,15.27
2019-04-06T04:15:33.744Z,15.53
2019-04-06T04:18:02.633Z,15.50
2019-04-06T04:20:50.637Z,15.72
2019-04-06T04:23:19.139Z,14.93
2019-04-06T04:25:47.647Z,14.93
2019-04-06T04:28:16.140Z,15.93
2019-04-06T04:30:44.573Z,15.85
2019-04-06T04:33:13.491Z,16.80
2019-04-06T04:35:41.941Z,15.75
2019-04-06T04:38:10.606Z,16.25
2019-04-06T04:40:58.372Z,15.60
2019-04-06T04:43:26.819Z,16.32
2019-04-06T04:45:55.425Z,16.32
2019-04-06T04:48:23.982Z,16.67
2019-04-06T04:50:52.647Z,15.65
2019-04-06T04:53:21.119Z,15.43
2019-04-06T04:55:49.545Z,15.35
2019-04-06T04:58:17.980Z,15.83
2019-04-06T05:00:46.402Z,15.48
2019-04-06T05:03:15.106Z,16.50
2019-04-06T05:05:43.617Z,16.70
2019-04-06T05:08:12.031Z,15.83
2019-04-06T05:10:40.475Z,16.73
2019-04-06T05:13:08.900Z,15.60
2019-04-06T05:16:12.379Z,16.48
2019-04-06T05:18:42.679Z,16.52
2019-04-06T05:21:12.048Z,15.93
2019-04-06T05:23:40.490Z,16.20
2019-04-06T05:26:09.010Z,15.98
2019-04-06T05:28:37.538Z,17.17
2019-04-06T05:31:06.066Z,17.45
2019-04-06T05:33:34.490Z,17.48
2019-04-06T05:36:02.939Z,15.88
2019-04-06T05:38:31.392Z,17.60
2019-04-06T05:40:59.933Z,15.80
2019-04-06T05:43:28.398Z,17.35
2019-04-06T05:45:57.007Z,17.07
2019-04-06T05:48:25.604Z,17.02
2019-04-06T05:50:54.062Z,18.15
2019-04-06T05:53:22.519Z,32.80
2019-04-06T05:55:50.947Z,28.20
2019-04-06T05:58:19.390Z,26.17
2019-04-06T06:00:47.825Z,24.47
2019-04-06T06:03:35.727Z,24.85
2019-04-06T06:06:04.214Z,19.10
2019-04-06T06:08:32.938Z,17.57
2019-04-06T06:11:01.428Z,17.00
2019-04-06T06:13:29.873Z,18.12
2019-04-06T06:15:58.505Z,17.12
2019-04-06T06:18:27.711Z,18.25
2019-04-06T06:20:56.511Z,21.20
2019-04-06T06:23:44.306Z,41.28
2019-04-06T06:26:12.858Z,23.83
2019-04-06T06:28:41.358Z,23.55
2019-04-06T06:31:09.919Z,18.87
2019-04-06T06:33:38.383Z,20.17
2019-04-06T06:36:06.820Z,18.87
2019-04-06T06:38:35.291Z,28.23
2019-04-06T06:41:03.720Z,28.95
2019-04-06T06:43:32.191Z,21.55
2019-04-06T06:46:00.768Z,16.85
2019-04-06T06:48:29.203Z,16.93
2019-04-06T06:50:57.640Z,17.70
2019-04-06T06:53:26.088Z,17.73
2019-04-06T06:55:54.519Z,17.57
2019-04-06T06:58:25.651Z,16.48
2019-04-06T07:00:53.168Z,17.45
2019-04-06T07:03:21.861Z,17.48
2019-04-06T07:05:50.798Z,18.25
2019-04-06T07:08:19.677Z,17.00
2019-04-06T07:10:48.526Z,16.65
2019-04-06T07:13:19.397Z,17.80
2019-04-06T07:15:47.857Z,16.50
2019-04-06T07:18:16.330Z,17.55
2019-04-06T07:20:44.820Z,17.50
2019-04-06T07:23:13.836Z,17.20
2019-04-06T07:25:42.353Z,17.60
2019-04-06T07:28:37.813Z,16.62
2019-04-06T07:31:00.356Z,15.98
2019-04-06T07:33:29.068Z,18.25
2019-04-06T07:35:57.605Z,29.60
2019-04-06T07:38:26.537Z,21.10
2019-04-06T07:40:55.053Z,20.00
2019-04-06T07:43:23.857Z,18.73
2019-04-06T07:45:52.470Z,17.85
2019-04-06T07:48:20.973Z,18.10
2019-04-06T07:50:49.526Z,26.90
2019-04-06T07:53:18.366Z,34.85
2019-04-06T07:55:47.114Z,33.15
2019-04-06T07:58:15.933Z,38.10
2019-04-06T08:00:45.080Z,35.03
2019-04-06T08:03:13.766Z,22.77
2019-04-06T08:05:42.876Z,18.95
2019-04-06T08:08:11.545Z,21.15
2019-04-06T08:10:40.320Z,19.42
2019-04-06T08:13:08.938Z,17.87
2019-04-06T08:15:39.546Z,16.95
2019-04-06T08:18:08.575Z,17.95
2019-04-06T08:20:39.940Z,17.85
2019-04-06T08:23:09.951Z,18.05
2019-04-06T08:25:39.043Z,17.60
2019-04-06T08:28:07.798Z,17.80
2019-04-06T08:30:45.781Z,17.77
2019-04-06T08:33:06.710Z,17.15
2019-04-06T08:35:35.194Z,18.00
2019-04-06T08:38:03.739Z,19.27
2019-04-06T08:40:35.293Z,18.95
2019-04-06T08:43:05.060Z,19.45
2019-04-06T08:45:34.124Z,19.37
2019-04-06T08:48:06.872Z,18.95
2019-04-06T08:50:35.410Z,18.27
2019-04-06T08:53:04.079Z,18.67
2019-04-06T08:55:32.707Z,18.98
2019-04-06T08:58:01.284Z,19.48
2019-04-06T09:00:29.834Z,18.35
2019-04-06T09:02:58.281Z,18.30
2019-04-06T09:05:26.865Z,17.55
2019-04-06T09:07:55.315Z,16.73
2019-04-06T09:10:23.789Z,18.32
2019-04-06T09:12:52.340Z,17.20
2019-04-06T09:15:20.826Z,17.10
2019-04-06T09:17:49.292Z,17.32
2019-04-06T09:20:17.739Z,17.92
2019-04-06T09:22:46.267Z,18.00
2019-04-06T09:25:14.773Z,17.32
2019-04-06T09:27:43.223Z,18.10
2019-04-06T09:30:12.041Z,16.65
2019-04-06T09:32:41.060Z,16.73
2019-04-06T09:35:09.722Z,20.75
2019-04-06T09:37:38.976Z,15.63
2019-04-06T09:40:07.943Z,14.53
2019-04-06T09:42:36.548Z,13.38
2019-04-06T09:45:23.599Z,13.38
2019-04-06T09:47:56.656Z,14.83
2019-04-06T09:50:26.773Z,14.80
2019-04-06T09:53:02.718Z,15.15
2019-04-06T09:55:35.440Z,13.13
2019-04-06T09:58:05.507Z,12.80
2019-04-06T10:00:35.926Z,13.15
2019-04-06T10:03:22.416Z,13.13
2019-04-06T10:06:01.494Z,13.10
2019-04-06T10:08:31.562Z,14.15
2019-04-06T10:11:16.904Z,13.35
2019-04-06T10:13:49.925Z,14.30
2019-04-06T10:16:22.679Z,23.90
2019-04-06T10:19:09.216Z,14.33
2019-04-06T10:21:39.309Z,14.07
2019-04-06T10:24:15.102Z,13.83
2019-04-06T10:26:45.205Z,14.03
2019-04-06T10:29:27.389Z,13.45
2019-04-06T10:32:00.489Z,14.15
2019-04-06T10:34:30.568Z,14.68
2019-04-06T10:37:03.807Z,13.65
2019-04-06T10:39:45.889Z,12.65
2019-04-06T10:42:15.985Z,13.25
2019-04-06T10:45:04.073Z,15.10
2019-04-06T10:47:34.153Z,13.53
2019-04-06T10:50:20.820Z,13.53
2019-04-06T10:52:56.795Z,14.05
2019-04-06T10:55:27.011Z,23.73
2019-04-06T10:58:13.819Z,20.85
2019-04-06T11:01:00.500Z,17.10
2019-04-06T11:03:30.926Z,16.95
2019-04-06T11:06:04.127Z,16.57
2019-04-06T11:08:46.223Z,16.23
2019-04-06T11:11:31.645Z,21.87
2019-04-06T11:14:04.439Z,19.30
2019-04-06T11:16:40.455Z,17.17
2019-04-06T11:19:26.858Z,15.95
2019-04-06T11:22:02.923Z,16.32
2019-04-06T11:24:32.995Z,15.65
2019-04-06T11:27:05.902Z,14.80
2019-04-06T11:29:41.868Z,16.45
2019-04-06T11:32:15.073Z,17.42
2019-04-06T11:34:54.439Z,17.82
2019-04-06T11:37:24.697Z,16.70
2019-04-06T11:39:54.836Z,16.87
2019-04-06T11:42:40.431Z,17.20
2019-04-06T11:45:13.109Z,16.48
2019-04-06T11:47:45.907Z,16.87
2019-04-06T11:50:18.579Z,16.17
2019-04-06T11:52:52.118Z,20.70
2019-04-06T11:55:28.326Z,21.35
2019-04-06T11:58:16.851Z,16.55
2019-04-06T12:01:03.689Z,16.15
2019-04-06T12:03:39.379Z,20.90
2019-04-06T12:06:12.140Z,19.17
2019-04-06T12:08:42.791Z,17.65
2019-04-06T12:11:25.281Z,17.98
2019-04-06T12:14:11.485Z,17.05
2019-04-06T12:16:44.536Z,18.32
2019-04-06T12:19:20.935Z,17.05
2019-04-06T12:21:51.115Z,18.15
2019-04-06T12:24:37.463Z,19.00
2019-04-06T12:27:25.820Z,17.32
2019-04-06T12:29:58.866Z,17.32
2019-04-06T12:32:45.150Z,16.97
2019-04-06T12:35:31.665Z,16.32
2019-04-06T12:38:16.920Z,16.37
2019-04-06T12:40:47.187Z,17.05
2019-04-06T12:43:23.343Z,16.45
2019-04-06T12:46:08.375Z,18.10
2019-04-06T12:48:47.190Z,18.00
2019-04-06T12:51:19.965Z,17.07
2019-04-06T12:53:50.068Z,18.62
2019-04-06T12:56:20.200Z,18.60
2019-04-06T12:59:06.773Z,19.57
2019-04-06T13:01:38.210Z,18.50
2019-04-06T13:04:11.635Z,18.05
2019-04-06T13:06:57.963Z,18.87
2019-04-06T13:09:31.005Z,18.60
2019-04-06T13:12:01.096Z,17.85
2019-04-06T13:14:37.054Z,18.67
2019-04-06T13:17:13.071Z,16.70
2019-04-06T13:19:46.145Z,17.60
2019-04-06T13:22:28.644Z,17.70
2019-04-06T13:24:58.727Z,16.95
2019-04-06T13:27:45.401Z,17.82
2019-04-06T13:30:27.394Z,16.07
2019-04-06T13:33:00.200Z,16.55
2019-04-06T13:35:39.032Z,17.25
2019-04-06T13:38:18.465Z,18.00
2019-04-06T13:40:48.582Z,15.93
2019-04-06T13:43:24.424Z,14.23
2019-04-06T13:46:00.505Z,14.58
2019-04-06T13:48:39.873Z,16.45
2019-04-06T13:51:10.421Z,20.90
2019-04-06T13:53:40.492Z,20.77
2019-04-06T13:56:22.597Z,14.87
2019-04-06T13:59:10.468Z,13.70
2019-04-06T14:01:40.598Z,12.82
2019-04-06T14:04:29.026Z,12.60
2019-04-06T14:07:08.128Z,12.82
2019-04-06T14:09:38.187Z,12.53
2019-04-06T14:12:25.045Z,12.53
2019-04-06T14:15:01.351Z,13.80
2019-04-06T14:17:40.709Z,14.07
2019-04-06T14:20:23.002Z,16.85
2019-04-06T14:23:11.441Z,13.30
2019-04-06T14:25:47.824Z,12.35
2019-04-06T14:28:35.862Z,12.07
2019-04-06T14:31:05.981Z,11.97
2019-04-06T14:33:42.017Z,12.05
2019-04-06T14:36:17.775Z,12.05
2019-04-06T14:39:04.122Z,17.42
2019-04-06T14:41:49.701Z,12.35
2019-04-06T14:44:19.845Z,12.03
2019-04-06T14:46:55.764Z,12.33
2019-04-06T14:49:33.044Z,11.15
2019-04-06T14:52:03.466Z,12.68
2019-04-06T14:54:36.446Z,12.65
2019-04-06T14:57:18.866Z,12.18
2019-04-06T14:59:49.329Z,12.15
2019-04-06T15:02:22.105Z,11.48
2019-04-06T15:05:08.371Z,11.83
2019-04-06T15:07:38.464Z,12.93
2019-04-06T15:10:14.666Z,12.90
2019-04-06T15:12:44.791Z,12.73
2019-04-06T15:15:18.043Z,13.35
2019-04-06T15:17:48.216Z,13.08
2019-04-06T15:20:18.330Z,12.68
2019-04-06T15:22:51.273Z,13.62
2019-04-06T15:25:30.158Z,13.53
2019-04-06T15:28:03.168Z,14.00
2019-04-06T15:30:41.986Z,13.13
2019-04-06T15:33:28.649Z,13.98
2019-04-06T15:36:08.076Z,13.38
2019-04-06T15:38:41.092Z,13.20
2019-04-06T15:41:26.870Z,13.32
2019-04-06T15:44:13.054Z,13.58
2019-04-06T15:47:01.156Z,13.13
2019-04-06T15:49:34.233Z,12.88
2019-04-06T15:52:16.884Z,13.75
2019-04-06T15:54:55.927Z,14.05
2019-04-06T15:57:40.999Z,13.65
2019-04-06T16:00:27.847Z,13.90
2019-04-06T16:03:10.129Z,13.28
2019-04-06T16:05:41.305Z,14.30
2019-04-06T16:08:11.418Z,13.90
2019-04-06T16:10:47.286Z,14.45
2019-04-06T16:13:23.529Z,14.20
2019-04-06T16:16:02.666Z,13.62
2019-04-06T16:18:45.072Z,12.73
2019-04-06T16:21:23.444Z,14.78
2019-04-06T16:24:04.658Z,13.40
2019-04-06T16:26:46.212Z,13.78
2019-04-06T16:29:33.001Z,13.72
2019-04-06T16:32:12.383Z,12.93
2019-04-06T16:37:42.354Z,13.58
2019-04-06T16:40:24.455Z,13.08
2019-04-06T16:42:57.508Z,13.20
2019-04-06T16:45:43.892Z,14.93
2019-04-06T16:48:17.346Z,14.90
2019-04-06T16:50:47.729Z,14.10
2019-04-06T16:53:33.092Z,14.30
2019-04-06T16:56:03.290Z,13.38
2019-04-06T16:58:45.829Z,12.18
2019-04-06T17:01:28.689Z,12.23
2019-04-06T17:04:02.326Z,12.88
2019-04-06T17:06:48.766Z,11.65
2019-04-06T17:09:24.817Z,12.68
2019-04-06T17:12:11.481Z,12.07
2019-04-06T17:14:41.596Z,13.38
2019-04-06T17:17:29.953Z,11.75
2019-04-06T17:23:03.160Z,12.28
2019-04-06T17:25:42.763Z,11.60
2019-04-06T17:28:24.840Z,11.90
2019-04-06T17:30:57.983Z,15.80
2019-04-06T17:33:28.441Z,21.40
2019-04-06T17:36:15.839Z,21.23
2019-04-06T17:38:52.271Z,15.50
2019-04-06T17:41:22.720Z,16.05
2019-04-06T17:44:09.166Z,13.35
2019-04-06T17:46:42.393Z,13.10
2019-04-06T17:49:27.692Z,13.58
2019-04-06T17:52:04.039Z,14.15
2019-04-06T17:54:51.364Z,13.58
2019-04-06T17:57:24.600Z,13.75
2019-04-06T18:00:12.385Z,13.98
2019-04-06T18:02:59.021Z,14.65
2019-04-06T18:05:38.264Z,14.80
2019-04-06T18:08:11.416Z,15.25
2019-04-06T18:10:53.921Z,14.30
2019-04-06T18:13:33.379Z,15.23
2019-04-06T18:16:02.493Z,15.08
2019-04-06T18:18:31.492Z,15.38
2019-04-06T18:21:00.580Z,15.83
2019-04-06T18:23:29.373Z,15.25
2019-04-06T18:25:57.986Z,15.30
2019-04-06T18:28:26.611Z,15.53
2019-04-06T18:30:57.025Z,17.32
2019-04-06T18:33:27.578Z,17.65
2019-04-06T18:35:56.188Z,16.73
2019-04-06T18:38:26.330Z,15.68
2019-04-06T18:40:55.167Z,14.78
2019-04-06T18:43:23.967Z,15.90
2019-04-06T18:45:52.557Z,16.48
2019-04-06T18:48:20.995Z,17.65
2019-04-06T18:50:49.582Z,17.02
2019-04-06T18:53:18.194Z,16.65
2019-04-06T18:55:47.041Z,17.32
2019-04-06T18:58:15.612Z,17.35
2019-04-06T19:00:47.113Z,17.52
2019-04-06T19:03:16.828Z,18.62
2019-04-06T19:05:45.850Z,19.12
2019-04-06T19:08:14.631Z,19.37
2019-04-06T19:10:44.119Z,18.92
2019-04-06T19:13:12.749Z,19.10
2019-04-06T19:15:41.192Z,19.32
2019-04-06T19:18:10.015Z,19.70
2019-04-06T19:20:38.569Z,20.95
2019-04-06T19:23:07.120Z,21.12
2019-04-06T19:25:35.812Z,21.68
2019-04-06T19:28:04.376Z,21.45
2019-04-06T19:30:34.053Z,20.62
2019-04-06T19:33:02.594Z,21.23
2019-04-06T19:35:31.403Z,20.65
2019-04-06T19:37:59.907Z,22.25
2019-04-06T19:40:29.613Z,20.48
2019-04-06T19:42:58.092Z,20.50
2019-04-06T19:45:26.913Z,19.90
2019-04-06T19:47:55.476Z,20.88
2019-04-06T19:50:23.920Z,19.77
2019-04-06T19:52:52.411Z,20.30
2019-04-06T19:55:21.260Z,20.30
2019-04-06T19:57:49.884Z,20.00
2019-04-06T20:00:18.981Z,21.05
2019-04-06T20:02:47.467Z,21.30
2019-04-06T20:05:15.992Z,20.30
2019-04-06T20:07:44.556Z,21.45
2019-04-06T20:10:13.126Z,20.15
2019-04-06T20:12:41.551Z,20.68
2019-04-06T20:15:10.225Z,22.77
2019-04-06T20:17:39.064Z,21.55
2019-04-06T20:20:08.021Z,20.48
2019-04-06T20:22:36.581Z,23.45
2019-04-06T20:25:08.276Z,21.87
2019-04-06T20:27:36.767Z,22.60
2019-04-06T20:30:07.874Z,21.68
2019-04-06T20:32:36.301Z,21.57
2019-04-06T20:35:06.887Z,22.65
2019-04-06T20:37:35.803Z,23.80
2019-04-06T20:40:07.368Z,25.97
2019-04-06T20:42:35.832Z,26.93
2019-04-06T20:45:06.619Z,27.05
2019-04-06T20:47:35.353Z,28.00
2019-04-06T20:50:07.082Z,30.43
2019-04-06T20:52:36.069Z,31.65
2019-04-06T20:55:06.364Z,29.90
2019-04-06T20:57:34.871Z,29.67
2019-04-06T21:00:05.056Z,31.40
2019-04-06T21:02:33.978Z,30.50
2019-04-06T21:05:03.089Z,27.85
2019-04-06T21:07:31.612Z,29.48
2019-04-06T21:10:00.593Z,28.02
2019-04-06T21:12:29.277Z,27.80
2019-04-06T21:14:57.700Z,29.48
2019-04-06T21:17:26.609Z,28.47
2019-04-06T21:19:55.224Z,28.40
2019-04-06T21:22:24.013Z,25.62
2019-04-06T21:24:52.747Z,27.20
2019-04-06T21:27:21.937Z,23.92
2019-04-06T21:29:50.727Z,23.77
2019-04-06T21:32:38.743Z,23.47
2019-04-06T21:35:07.300Z,24.07
2019-04-06T21:37:35.880Z,22.93
2019-04-06T21:40:09.142Z,22.67
2019-04-06T21:42:37.747Z,21.57
2019-04-06T21:45:07.887Z,21.82
2019-04-06T21:47:36.499Z,20.62
2019-04-06T21:50:08.697Z,20.10
2019-04-06T21:52:37.302Z,20.72
2019-04-06T21:55:07.878Z,21.62
2019-04-06T21:57:36.477Z,22.22
2019-04-06T22:00:10.275Z,22.67
2019-04-06T22:02:39.219Z,22.02
2019-04-06T22:05:09.300Z,21.27
2019-04-06T22:07:47.247Z,21.07
2019-04-06T22:10:08.460Z,21.07
2019-04-06T22:12:36.966Z,19.90
2019-04-06T22:15:07.484Z,21.42
2019-04-06T22:17:36.042Z,20.17
2019-04-06T22:20:05.343Z,19.12
2019-04-06T22:22:33.803Z,19.25
2019-04-06T22:25:02.358Z,19.07
2019-04-06T22:27:31.200Z,20.17
2019-04-06T22:30:00.286Z,20.25
2019-04-06T22:32:28.919Z,19.50
2019-04-06T22:34:57.876Z,18.82
2019-04-06T22:37:26.483Z,19.85
2019-04-06T22:39:54.972Z,19.15
2019-04-06T22:42:23.852Z,19.45
2019-04-06T22:44:52.382Z,20.75
2019-04-06T22:47:20.940Z,18.70
2019-04-06T22:49:49.870Z,20.52
2019-04-06T22:52:18.462Z,19.95
2019-04-06T22:54:46.897Z,19.50
2019-04-06T22:57:15.840Z,40.80
2019-04-06T22:59:44.735Z,75.85
2019-04-06T23:02:13.177Z,78.00
2019-04-06T23:04:51.224Z,30.85
2019-04-06T23:07:27.011Z,27.07
2019-04-06T23:09:55.519Z,61.90
2019-04-06T23:12:24.549Z,56.33
2019-04-06T23:14:53.680Z,39.73
2019-04-06T23:17:22.481Z,22.05
2019-04-06T23:19:51.015Z,17.37
2019-04-06T23:22:19.567Z,18.90
2019-04-06T23:24:48.068Z,17.48
2019-04-06T23:27:16.546Z,17.70
2019-04-06T23:29:45.018Z,18.00
2019-04-06T23:32:13.547Z,18.92
2019-04-06T23:34:42.062Z,18.27
2019-04-06T23:37:10.509Z,18.95
2019-04-06T23:39:39.051Z,19.40
2019-04-06T23:42:08.534Z,19.62
2019-04-06T23:44:37.344Z,19.15
2019-04-06T23:47:05.825Z,19.90
2019-04-06T23:49:34.899Z,19.17
2019-04-06T23:52:03.741Z,18.55
2019-04-06T23:54:32.252Z,19.17
2019-04-06T23:57:00.832Z,22.60
2019-04-06T23:59:29.301Z,19.75
